createdAt,value
2019-06-10T00:01:08.208Z,100492.09
2019-06-10T00:03:36.216Z,100542.92
2019-06-10T00:06:05.670Z,100545.09
2019-06-10T00:08:35.330Z,100531.03
2019-06-10T00:11:06.157Z,100529.73
2019-06-10T00:13:34.723Z,100535.05
2019-06-10T00:16:04.798Z,100507.44
2019-06-10T00:18:41.846Z,100542.02
2019-06-10T00:21:05.577Z,100505.33
2019-06-10T00:23:35.276Z,100540.62
2019-06-10T00:26:08.036Z,100532.08
2019-06-10T00:28:40.541Z,100532.52
2019-06-10T00:31:08.714Z,100520.72
2019-06-10T00:33:37.049Z,100526.67
2019-06-10T00:36:07.141Z,100515.15
2019-06-10T00:38:41.166Z,100518.70
2019-06-10T00:41:13.738Z,100521.99
2019-06-10T00:43:42.581Z,100532.94
2019-06-10T00:46:13.330Z,100528.28
2019-06-10T00:48:41.831Z,100531.02
2019-06-10T00:51:13.081Z,100532.19
2019-06-10T00:53:42.281Z,100535.58
2019-06-10T00:56:14.168Z,100519.83
2019-06-10T00:58:41.383Z,100539.05
2019-06-10T01:01:14.008Z,100542.88
2019-06-10T01:03:41.467Z,100538.64
2019-06-10T01:06:14.589Z,100532.08
2019-06-10T01:08:40.634Z,100500.76
2019-06-10T01:11:21.281Z,100518.59
2019-06-10T01:13:42.065Z,100505.37
2019-06-10T01:16:12.595Z,100505.56
2019-06-10T01:18:41.605Z,100508.47
2019-06-10T01:21:12.208Z,100505.63
2019-06-10T01:23:41.619Z,100518.70
2019-06-10T01:26:14.133Z,100519.50
2019-06-10T01:28:41.044Z,100516.16
2019-06-10T01:31:13.091Z,100528.19
2019-06-10T01:33:41.160Z,100519.38
2019-06-10T01:36:12.653Z,100513.61
2019-06-10T01:38:40.935Z,100496.91
2019-06-10T01:41:11.119Z,100498.27
2019-06-10T01:43:41.378Z,100501.83
2019-06-10T01:46:11.728Z,100492.56
2019-06-10T01:48:45.096Z,100478.69
2019-06-10T01:51:13.115Z,100455.19
2019-06-10T01:53:42.300Z,100450.00
2019-06-10T01:56:13.799Z,100460.19
2019-06-10T01:58:42.345Z,100473.87
2019-06-10T02:01:17.413Z,100478.13
2019-06-10T02:03:44.992Z,100480.01
2019-06-10T02:06:17.687Z,100484.97
2019-06-10T02:08:45.061Z,100501.11
2019-06-10T02:11:15.698Z,100506.77
2019-06-10T02:13:43.876Z,100500.41
2019-06-10T02:16:14.492Z,100493.94
2019-06-10T02:18:56.835Z,100493.94
2019-06-10T02:21:15.001Z,100492.38
2019-06-10T02:23:42.950Z,100494.93
2019-06-10T02:26:14.568Z,100503.61
2019-06-10T02:28:41.577Z,100507.95
2019-06-10T02:31:14.254Z,100521.59
2019-06-10T02:33:41.971Z,100533.66
2019-06-10T02:36:13.895Z,100522.01
2019-06-10T02:38:44.208Z,100517.62
2019-06-10T02:41:17.543Z,100520.03
2019-06-10T02:43:44.012Z,100524.46
2019-06-10T02:46:13.763Z,100517.62
2019-06-10T02:48:43.583Z,100516.17
2019-06-10T02:51:15.071Z,100510.17
2019-06-10T02:53:43.664Z,100503.09
2019-06-10T02:56:13.069Z,100493.75
2019-06-10T02:58:44.890Z,100499.22
2019-06-10T03:01:15.262Z,100499.51
2019-06-10T03:03:48.340Z,100494.88
2019-06-10T03:06:17.420Z,100482.81
2019-06-10T03:08:44.698Z,100481.96
2019-06-10T03:11:14.044Z,100474.70
2019-06-10T03:13:44.435Z,100473.99
2019-06-10T03:16:29.484Z,100474.23
2019-06-10T03:18:57.918Z,100479.12
2019-06-10T03:21:26.304Z,100479.36
2019-06-10T03:23:54.706Z,100474.97
2019-06-10T03:26:24.348Z,100473.52
2019-06-10T03:28:53.240Z,100463.14
2019-06-10T03:31:31.264Z,100464.19
2019-06-10T03:33:54.392Z,100460.64
2019-06-10T03:36:23.097Z,100464.19
2019-06-10T03:38:53.727Z,100463.90
2019-06-10T03:41:24.676Z,100446.41
2019-06-10T03:43:53.970Z,100434.27
2019-06-10T03:46:24.251Z,100431.95
2019-06-10T03:48:52.791Z,100416.09
2019-06-10T03:51:23.543Z,100409.81
2019-06-10T03:53:53.135Z,100420.63
2019-06-10T03:56:23.234Z,100403.17
2019-06-10T03:58:52.093Z,100397.79
2019-06-10T04:01:24.347Z,100399.28
2019-06-10T04:03:53.006Z,100385.39
2019-06-10T04:06:22.158Z,100371.23
2019-06-10T04:08:52.225Z,100369.37
2019-06-10T04:11:23.958Z,100366.44
2019-06-10T04:13:53.374Z,100361.89
2019-06-10T04:16:22.691Z,100359.72
2019-06-10T04:18:53.407Z,100357.55
2019-06-10T04:21:22.784Z,100329.17
2019-06-10T04:23:52.790Z,100338.63
2019-06-10T04:26:24.515Z,100341.16
2019-06-10T04:28:52.984Z,100351.91
2019-06-10T04:31:23.752Z,100367.84
2019-06-10T04:33:53.498Z,100378.39
2019-06-10T04:36:24.499Z,100392.76
2019-06-10T04:38:53.555Z,100402.17
2019-06-10T04:41:24.330Z,100401.41
2019-06-10T04:43:53.157Z,100406.96
2019-06-10T04:46:23.675Z,100413.12
2019-06-10T04:48:53.253Z,100406.48
2019-06-10T04:51:23.877Z,100402.14
2019-06-10T04:53:54.152Z,100406.84
2019-06-10T04:56:24.607Z,100407.31
2019-06-10T04:58:52.732Z,100408.36
2019-06-10T05:01:25.491Z,100422.22
2019-06-10T05:03:52.611Z,100443.23
2019-06-10T05:06:23.865Z,100444.98
2019-06-10T05:08:53.626Z,100442.23
2019-06-10T05:11:24.285Z,100440.73
2019-06-10T05:13:53.552Z,100445.42
2019-06-10T05:16:25.593Z,100454.69
2019-06-10T05:18:54.755Z,100469.06
2019-06-10T05:21:25.112Z,100461.80
2019-06-10T05:23:52.425Z,100458.70
2019-06-10T05:26:25.019Z,100478.25
2019-06-10T05:28:52.403Z,100481.92
2019-06-10T05:31:23.233Z,100477.80
2019-06-10T05:33:53.148Z,100453.42
2019-06-10T05:36:25.714Z,100489.66
2019-06-10T05:38:52.556Z,100491.03
2019-06-10T05:41:24.116Z,100495.06
2019-06-10T05:43:52.965Z,100484.48
2019-06-10T05:46:23.627Z,100484.72
2019-06-10T05:48:52.787Z,100484.72
2019-06-10T05:51:23.211Z,100486.54
2019-06-10T05:53:52.791Z,100477.71
2019-06-10T05:56:22.367Z,100475.53
2019-06-10T05:58:52.480Z,100459.09
2019-06-10T06:01:22.917Z,100456.34
2019-06-10T06:03:52.906Z,100451.41
2019-06-10T06:06:22.913Z,100453.32
2019-06-10T06:08:53.399Z,100466.95
2019-06-10T06:11:23.180Z,100469.33
2019-06-10T06:13:52.365Z,100466.52
2019-06-10T06:16:23.125Z,100461.59
2019-06-10T06:18:52.776Z,100458.44
2019-06-10T06:21:29.120Z,100448.92
2019-06-10T06:23:52.895Z,100448.55
2019-06-10T06:26:23.589Z,100453.06
2019-06-10T06:28:53.455Z,100457.31
2019-06-10T06:31:23.237Z,100449.06
2019-06-10T06:33:52.706Z,100455.72
2019-06-10T06:36:22.970Z,100460.08
2019-06-10T06:38:53.331Z,100460.50
2019-06-10T06:41:22.628Z,100463.28
2019-06-10T06:43:53.021Z,100469.11
2019-06-10T06:46:23.412Z,100474.16
2019-06-10T06:48:53.210Z,100478.42
2019-06-10T06:51:35.945Z,100484.75
2019-06-10T06:53:56.265Z,100481.47
2019-06-10T06:56:24.112Z,100474.07
2019-06-10T06:58:52.689Z,100470.25
2019-06-10T07:01:25.184Z,100477.07
2019-06-10T07:03:53.600Z,100481.20
2019-06-10T07:06:23.229Z,100481.78
2019-06-10T07:09:04.061Z,100482.08
2019-06-10T07:11:24.747Z,100479.05
2019-06-10T07:13:56.424Z,100486.42
2019-06-10T07:16:24.967Z,100467.61
2019-06-10T07:18:54.115Z,100456.53
2019-06-10T07:21:22.996Z,100453.45
2019-06-10T07:23:52.929Z,100464.80
2019-06-10T07:26:23.514Z,100464.80
2019-06-10T07:28:53.680Z,100471.63
2019-06-10T07:31:27.654Z,100465.20
2019-06-10T07:33:55.155Z,100467.08
2019-06-10T07:36:26.312Z,100459.14
2019-06-10T07:38:54.779Z,100452.02
2019-06-10T07:41:23.390Z,100452.64
2019-06-10T07:43:53.342Z,100456.50
2019-06-10T07:46:24.715Z,100454.11
2019-06-10T07:48:56.489Z,100459.16
2019-06-10T07:51:23.261Z,100457.37
2019-06-10T07:53:53.190Z,100450.71
2019-06-10T07:56:23.355Z,100424.28
2019-06-10T07:58:52.762Z,100413.24
2019-06-10T08:01:22.927Z,100429.30
2019-06-10T08:03:52.729Z,100432.56
2019-06-10T08:06:23.213Z,100430.14
2019-06-10T08:08:53.139Z,100429.37
2019-06-10T08:11:22.941Z,100433.86
2019-06-10T08:13:53.941Z,100441.55
2019-06-10T08:16:23.643Z,100442.66
2019-06-10T08:19:20.973Z,100438.02
2019-06-10T08:21:24.849Z,100440.81
2019-06-10T08:23:54.616Z,100438.02
2019-06-10T08:26:24.511Z,100434.95
2019-06-10T08:28:54.483Z,100439.00
2019-06-10T08:31:24.649Z,100443.31
2019-06-10T08:33:54.625Z,100449.30
2019-06-10T08:36:23.672Z,100449.27
2019-06-10T08:38:52.883Z,100445.16
2019-06-10T08:41:23.060Z,100452.16
2019-06-10T08:43:53.251Z,100444.59
2019-06-10T08:46:22.542Z,100430.70
2019-06-10T08:48:52.857Z,100423.16
2019-06-10T08:51:23.672Z,100417.48
2019-06-10T08:53:53.263Z,100424.22
2019-06-10T08:56:22.379Z,100426.78
2019-06-10T08:58:54.143Z,100421.94
2019-06-10T09:01:22.507Z,100419.86
2019-06-10T09:03:53.862Z,100422.17
2019-06-10T09:06:23.219Z,100426.05
2019-06-10T09:08:54.489Z,100428.61
2019-06-10T09:11:25.017Z,100435.80
2019-06-10T09:13:54.774Z,100442.42
2019-06-10T09:16:23.415Z,100429.44
2019-06-10T09:18:55.215Z,100421.11
2019-06-10T09:21:23.910Z,100411.41
2019-06-10T09:23:59.416Z,100387.14
2019-06-10T09:26:23.083Z,100373.89
2019-06-10T09:28:56.195Z,100375.78
2019-06-10T09:31:23.296Z,100350.00
2019-06-10T09:33:56.812Z,100375.52
2019-06-10T09:36:28.417Z,100359.97
2019-06-10T09:38:58.381Z,100339.54
2019-06-10T09:41:39.963Z,100343.12
2019-06-10T09:43:58.503Z,100331.31
2019-06-10T09:46:28.403Z,100309.81
2019-06-10T09:48:58.022Z,100307.70
2019-06-10T09:51:28.536Z,100310.48
2019-06-10T09:54:03.722Z,100300.05
2019-06-10T09:56:27.306Z,100311.95
2019-06-10T09:58:55.888Z,100330.81
2019-06-10T10:01:24.724Z,100338.40
2019-06-10T10:03:59.815Z,100339.02
2019-06-10T10:06:24.694Z,100363.33
2019-06-10T10:08:58.036Z,100364.10
2019-06-10T10:11:28.653Z,100372.86
2019-06-10T10:13:57.178Z,100372.44
2019-06-10T10:16:25.533Z,100365.33
2019-06-10T10:19:00.250Z,100366.52
2019-06-10T10:21:24.103Z,100362.75
2019-06-10T10:24:06.324Z,100359.59
2019-06-10T10:26:22.701Z,100357.08
2019-06-10T10:28:53.214Z,100348.52
2019-06-10T10:31:23.832Z,100351.39
2019-06-10T10:33:52.963Z,100338.28
2019-06-10T10:36:22.594Z,100339.66
2019-06-10T10:38:51.096Z,100323.80
2019-06-10T10:41:19.546Z,100327.05
2019-06-10T10:43:50.554Z,100329.52
2019-06-10T10:46:26.618Z,100327.73
2019-06-10T10:48:56.763Z,100331.67
2019-06-10T10:51:25.113Z,100326.48
2019-06-10T10:54:28.687Z,100328.41
2019-06-10T10:56:29.133Z,100325.14
2019-06-10T10:58:59.040Z,100311.78
2019-06-10T11:01:27.599Z,100290.92
2019-06-10T11:03:59.138Z,100212.45
2019-06-10T11:06:26.115Z,100191.57
2019-06-10T11:08:55.858Z,100143.46
2019-06-10T11:11:27.051Z,100105.80
2019-06-10T11:13:58.608Z,100094.72
2019-06-10T11:16:27.405Z,100128.48
2019-06-10T11:18:56.730Z,100177.72
2019-06-10T11:21:25.987Z,100217.62
2019-06-10T11:24:01.406Z,100240.80
2019-06-10T11:26:27.717Z,100263.56
2019-06-10T11:28:56.206Z,100268.64
2019-06-10T11:31:26.199Z,100227.50
2019-06-10T11:33:57.854Z,100262.84
2019-06-10T11:36:27.121Z,100284.49
2019-06-10T11:38:59.088Z,100272.42
2019-06-10T11:41:27.498Z,100312.34
2019-06-10T11:43:59.306Z,100306.53
2019-06-10T11:46:28.688Z,100307.19
2019-06-10T11:48:58.967Z,100308.79
2019-06-10T11:51:27.461Z,100298.84
2019-06-10T11:53:57.707Z,100298.33
2019-06-10T11:56:26.988Z,100282.34
2019-06-10T11:58:58.346Z,100259.19
2019-06-10T12:01:26.035Z,100251.66
2019-06-10T12:04:00.406Z,100233.59
2019-06-10T12:06:28.434Z,100239.34
2019-06-10T12:09:00.483Z,100207.45
2019-06-10T12:11:27.378Z,100236.13
2019-06-10T12:14:01.896Z,100225.97
2019-06-10T12:17:15.620Z,100222.18
2019-06-10T12:18:57.339Z,100216.67
2019-06-10T12:21:26.448Z,100227.16
2019-06-10T12:24:00.523Z,100198.97
2019-06-10T12:26:25.924Z,100185.33
2019-06-10T12:28:56.459Z,100195.69
2019-06-10T12:31:24.665Z,100192.56
2019-06-10T12:33:55.919Z,100186.72
2019-06-10T12:36:23.949Z,100188.66
2019-06-10T12:38:58.295Z,100164.91
2019-06-10T12:41:24.521Z,100184.66
2019-06-10T12:43:54.878Z,100184.46
2019-06-10T12:46:24.921Z,100170.98
2019-06-10T12:48:57.795Z,100164.97
2019-06-10T12:51:24.767Z,100180.59
2019-06-10T12:53:55.265Z,100192.75
2019-06-10T12:56:25.315Z,100188.14
2019-06-10T12:58:55.825Z,100175.41
2019-06-10T13:01:23.959Z,100216.30
2019-06-10T13:03:53.778Z,100217.72
2019-06-10T13:06:24.316Z,100231.98
2019-06-10T13:08:56.321Z,100244.94
2019-06-10T13:11:27.800Z,100260.09
2019-06-10T13:13:57.846Z,100273.57
2019-06-10T13:16:27.979Z,100280.87
2019-06-10T13:18:56.498Z,100288.65
2019-06-10T13:21:30.250Z,100302.75
2019-06-10T13:23:59.473Z,100304.73
2019-06-10T13:26:28.186Z,100298.69
2019-06-10T13:28:57.002Z,100293.12
2019-06-10T13:31:25.410Z,100296.73
2019-06-10T13:33:53.879Z,100283.21
2019-06-10T13:36:26.142Z,100247.89
2019-06-10T13:38:54.142Z,100253.97
2019-06-10T13:41:24.065Z,100236.85
2019-06-10T13:43:53.428Z,100230.75
2019-06-10T13:46:24.645Z,100226.62
2019-06-10T13:49:02.051Z,100215.88
2019-06-10T13:51:39.202Z,100221.14
2019-06-10T13:54:10.554Z,100215.66
2019-06-10T13:56:47.173Z,100215.12
2019-06-10T13:59:11.700Z,100186.47
2019-06-10T14:01:42.830Z,100195.80
2019-06-10T14:04:21.202Z,100179.80
2019-06-10T14:06:49.875Z,100161.05
2019-06-10T14:09:16.526Z,100123.80
2019-06-10T14:11:42.884Z,100143.84
2019-06-10T14:14:14.117Z,100107.23
2019-06-10T14:16:42.348Z,100136.16
2019-06-10T14:19:15.708Z,100134.56
2019-06-10T14:21:42.726Z,100133.72
2019-06-10T14:24:15.737Z,100142.59
2019-06-10T14:26:45.471Z,100145.39
2019-06-10T14:29:16.150Z,100151.19
2019-06-10T14:31:47.653Z,100170.97
2019-06-10T14:34:18.007Z,100175.64
2019-06-10T14:36:44.887Z,100163.23
2019-06-10T14:39:15.632Z,100176.39
2019-06-10T14:41:43.506Z,100176.09
2019-06-10T14:44:16.114Z,100182.70
2019-06-10T14:46:43.667Z,100187.67
2019-06-10T14:49:15.599Z,100191.27
2019-06-10T14:51:43.821Z,100197.36
2019-06-10T14:54:17.424Z,100199.87
2019-06-10T14:56:53.041Z,100199.33
2019-06-10T14:59:14.915Z,100198.24
2019-06-10T15:01:42.756Z,100190.27
2019-06-10T15:04:14.393Z,100161.07
2019-06-10T15:06:43.184Z,100181.23
2019-06-10T15:09:11.628Z,100182.04
2019-06-10T15:11:40.044Z,100167.72
2019-06-10T15:14:09.809Z,100160.30
2019-06-10T15:16:43.541Z,100151.18
2019-06-10T15:19:19.260Z,100163.31
2019-06-10T15:21:42.877Z,100166.06
2019-06-10T15:24:11.968Z,100168.27
2019-06-10T15:26:42.276Z,100161.09
2019-06-10T15:29:15.619Z,100155.05
2019-06-10T15:31:45.603Z,100160.52
2019-06-10T15:34:16.477Z,100152.52
2019-06-10T15:36:44.952Z,100160.22
2019-06-10T15:39:16.367Z,100149.73
2019-06-10T15:41:43.614Z,100143.95
2019-06-10T15:44:14.637Z,100142.60
2019-06-10T15:46:43.054Z,100148.94
2019-06-10T15:49:16.349Z,100151.41
2019-06-10T15:51:43.720Z,100155.56
2019-06-10T15:54:15.371Z,100153.93
2019-06-10T15:56:52.034Z,100161.11
2019-06-10T15:59:14.939Z,100155.03
2019-06-10T16:01:42.908Z,100161.33
2019-06-10T16:04:13.842Z,100157.77
2019-06-10T16:06:42.470Z,100158.59
2019-06-10T16:09:13.747Z,100160.76
2019-06-10T16:11:43.689Z,100173.40
2019-06-10T16:14:12.561Z,100176.39
2019-06-10T16:16:43.287Z,100173.88
2019-06-10T16:19:14.324Z,100163.11
2019-06-10T16:21:44.313Z,100169.41
2019-06-10T16:24:15.054Z,100170.78
2019-06-10T16:26:43.228Z,100137.92
2019-06-10T16:29:12.306Z,100179.80
2019-06-10T16:31:42.584Z,100173.70
2019-06-10T16:34:12.744Z,100172.02
2019-06-10T16:36:43.727Z,100164.30
2019-06-10T16:39:12.639Z,100160.13
2019-06-10T16:41:43.631Z,100155.73
2019-06-10T16:44:13.500Z,100148.86
2019-06-10T16:46:43.151Z,100152.42
2019-06-10T16:49:12.799Z,100165.09
2019-06-10T16:51:42.882Z,100138.61
2019-06-10T16:54:13.021Z,100157.96
2019-06-10T16:56:43.524Z,100150.29
2019-06-10T16:59:12.326Z,100149.19
2019-06-10T17:01:42.791Z,100135.48
2019-06-10T17:04:12.439Z,100134.86
2019-06-10T17:06:42.211Z,100134.86
2019-06-10T17:09:13.305Z,100145.01
2019-06-10T17:11:42.626Z,100145.53
2019-06-10T17:14:12.711Z,100146.54
2019-06-10T17:16:41.428Z,100148.44
2019-06-10T17:19:09.822Z,100147.32
2019-06-10T17:21:38.331Z,100144.30
2019-06-10T17:24:06.901Z,100157.70
2019-06-10T17:26:38.147Z,100166.73
2019-06-10T17:29:05.717Z,100169.46
2019-06-10T17:31:35.149Z,100182.34
2019-06-10T17:34:04.435Z,100188.88
2019-06-10T17:36:35.406Z,100190.14
2019-06-10T17:39:08.305Z,100202.17
2019-06-10T17:41:38.395Z,100194.16
2019-06-10T17:44:06.895Z,100198.28
2019-06-10T17:46:35.507Z,100188.67
2019-06-10T17:49:04.511Z,100184.02
2019-06-10T17:51:35.560Z,100156.41
2019-06-10T17:54:04.255Z,100182.65
2019-06-10T17:56:36.038Z,100181.80
2019-06-10T17:59:03.474Z,100194.41
2019-06-10T18:01:34.208Z,100194.66
2019-06-10T18:04:02.594Z,100194.07
2019-06-10T18:06:33.895Z,100186.08
2019-06-10T18:09:03.836Z,100170.13
2019-06-10T18:11:34.185Z,100166.27
2019-06-10T18:14:02.646Z,100161.89
2019-06-10T18:16:33.666Z,100166.01
2019-06-10T18:19:03.364Z,100166.84
2019-06-10T18:21:33.533Z,100164.10
2019-06-10T18:24:07.350Z,100155.56
2019-06-10T18:26:35.897Z,100156.41
2019-06-10T18:29:08.081Z,100163.53
2019-06-10T18:31:35.690Z,100153.38
2019-06-10T18:34:04.530Z,100153.90
2019-06-10T18:36:34.649Z,100157.70
2019-06-10T18:39:06.375Z,100159.63
2019-06-10T18:41:35.050Z,100146.60
2019-06-10T18:44:18.742Z,100134.25
2019-06-10T18:46:36.423Z,100115.80
2019-06-10T18:49:05.498Z,100141.98
2019-06-10T18:51:36.036Z,100132.13
2019-06-10T18:54:04.300Z,100142.52
2019-06-10T18:56:34.365Z,100101.71
2019-06-10T18:59:15.700Z,100130.67
2019-06-10T19:01:34.332Z,100130.38
2019-06-10T19:04:03.935Z,100135.56
2019-06-10T19:06:33.779Z,100125.92
2019-06-10T19:09:03.245Z,100124.23
2019-06-10T19:11:34.083Z,100113.47
2019-06-10T19:14:03.383Z,100115.36
2019-06-10T19:16:35.424Z,100120.25
2019-06-10T19:19:02.919Z,100111.40
2019-06-10T19:21:32.386Z,100114.91
2019-06-10T19:24:03.093Z,100123.61
2019-06-10T19:26:33.986Z,100119.19
2019-06-10T19:29:03.761Z,100116.09
2019-06-10T19:31:36.223Z,100118.23
2019-06-10T19:34:03.983Z,100114.60
2019-06-10T19:36:33.610Z,100104.68
2019-06-10T19:39:02.438Z,100090.48
2019-06-10T19:41:33.238Z,100123.29
2019-06-10T19:44:02.618Z,100122.17
2019-06-10T19:46:32.838Z,100125.16
2019-06-10T19:49:04.047Z,100126.53
2019-06-10T19:51:34.626Z,100132.80
2019-06-10T19:54:03.670Z,100130.03
2019-06-10T19:56:33.067Z,100142.09
2019-06-10T19:59:01.651Z,100139.88
2019-06-10T20:01:30.052Z,100139.30
2019-06-10T20:03:58.493Z,100141.23
2019-06-10T20:06:26.897Z,100137.65
2019-06-10T20:08:55.317Z,100150.81
2019-06-10T20:11:23.731Z,100155.45
2019-06-10T20:13:53.638Z,100154.37
2019-06-10T20:16:23.580Z,100158.48
2019-06-10T20:18:53.606Z,100154.09
2019-06-10T20:21:23.750Z,100154.37
2019-06-10T20:23:53.007Z,100153.00
2019-06-10T20:26:22.553Z,100155.45
2019-06-10T20:28:53.054Z,100143.97
2019-06-10T20:31:22.171Z,100136.53
2019-06-10T20:33:52.325Z,100135.69
2019-06-10T20:36:25.686Z,100137.88
2019-06-10T20:38:53.343Z,100127.70
2019-06-10T20:41:22.790Z,100120.55
2019-06-10T20:43:55.170Z,100108.16
2019-06-10T20:46:23.601Z,100103.48
2019-06-10T20:48:54.520Z,100099.61
2019-06-10T20:51:22.723Z,100101.76
2019-06-10T20:53:53.298Z,100096.00
2019-06-10T20:56:23.269Z,100080.60
2019-06-10T20:58:52.498Z,100093.18
2019-06-10T21:01:25.220Z,100089.58
2019-06-10T21:03:53.971Z,100096.65
2019-06-10T21:06:24.355Z,100102.94
2019-06-10T21:08:55.855Z,100061.86
2019-06-10T21:11:24.248Z,100091.37
2019-06-10T21:13:55.529Z,100093.23
2019-06-10T21:16:23.080Z,100093.48
2019-06-10T21:18:55.414Z,100095.64
2019-06-10T21:21:22.612Z,100107.43
2019-06-10T21:23:53.889Z,100118.11
2019-06-10T21:26:23.672Z,100137.02
2019-06-10T21:28:55.054Z,100140.57
2019-06-10T21:31:22.613Z,100153.73
2019-06-10T21:33:55.362Z,100161.11
2019-06-10T21:36:22.968Z,100163.84
2019-06-10T21:38:55.411Z,100155.60
2019-06-10T21:41:22.882Z,100156.38
2019-06-10T21:43:58.450Z,100146.23
2019-06-10T21:46:22.712Z,100145.12
2019-06-10T21:48:52.546Z,100136.91
2019-06-10T21:51:22.859Z,100122.09
2019-06-10T21:53:53.801Z,100114.66
2019-06-10T21:56:22.647Z,100096.27
2019-06-10T21:58:54.141Z,100086.91
2019-06-10T22:01:22.876Z,100083.58
2019-06-10T22:03:59.955Z,100074.75
2019-06-10T22:06:22.822Z,100070.86
2019-06-10T22:08:54.529Z,100063.12
2019-06-10T22:11:23.595Z,100069.87
2019-06-10T22:13:53.325Z,100061.34
2019-06-10T22:16:22.659Z,100062.94
2019-06-10T22:18:52.605Z,100070.80
2019-06-10T22:21:22.667Z,100076.52
2019-06-10T22:23:53.633Z,100079.75
2019-06-10T22:26:22.495Z,100072.04
2019-06-10T22:28:54.180Z,100072.00
2019-06-10T22:31:23.790Z,100068.71
2019-06-10T22:33:53.753Z,100073.59
2019-06-10T22:36:23.188Z,100081.52
2019-06-10T22:38:55.820Z,100092.14
2019-06-10T22:41:22.546Z,100096.56
2019-06-10T22:43:54.537Z,100094.87
2019-06-10T22:46:23.174Z,100097.58
2019-06-10T22:48:53.276Z,100098.91
2019-06-10T22:51:22.980Z,100100.00
2019-06-10T22:53:54.846Z,100098.88
2019-06-10T22:56:21.586Z,100100.17
2019-06-10T22:58:52.692Z,100111.12
2019-06-10T23:01:31.685Z,100102.63
2019-06-10T23:03:50.263Z,100099.89
2019-06-10T23:06:18.791Z,100101.26
2019-06-10T23:08:48.212Z,100094.70
2019-06-10T23:11:18.178Z,100088.67
2019-06-10T23:13:48.632Z,100090.28
2019-06-10T23:16:17.005Z,100093.55
2019-06-10T23:18:45.575Z,100092.73
2019-06-10T23:21:13.997Z,100096.77
2019-06-10T23:23:43.117Z,100086.92
2019-06-10T23:26:13.088Z,100076.75
2019-06-10T23:28:43.087Z,100080.58
2019-06-10T23:31:13.022Z,100081.09
2019-06-10T23:33:42.566Z,100077.28
2019-06-10T23:36:13.069Z,100073.45
2019-06-10T23:38:43.187Z,100080.58
2019-06-10T23:41:12.986Z,100071.00
2019-06-10T23:43:42.281Z,100068.27
2019-06-10T23:46:12.136Z,100068.76
2019-06-10T23:48:42.378Z,100075.06
2019-06-10T23:51:12.109Z,100073.66
2019-06-10T23:53:42.102Z,100070.09
2019-06-10T23:56:12.699Z,100077.45
2019-06-10T23:58:43.292Z,100072.30
